createdAt,value
2023-12-27T00:00:03.449Z,6.03
2023-12-27T00:03:11.866Z,5.97
2023-12-27T00:06:11.066Z,5.65
2023-12-27T00:09:11.202Z,6.30
2023-12-27T00:12:16.868Z,6.05
2023-12-27T00:15:23.220Z,5.72
2023-12-27T00:18:28.821Z,6.87
2023-12-27T00:21:34.849Z,6.00
2023-12-27T00:24:41.229Z,7.22
2023-12-27T00:27:47.694Z,6.15
2023-12-27T00:30:56.016Z,6.28
2023-12-27T00:34:03.799Z,6.72
2023-12-27T00:37:10.123Z,6.30
2023-12-27T00:40:16.433Z,5.85
2023-12-27T00:43:21.600Z,5.97
2023-12-27T00:46:27.830Z,5.17
2023-12-27T00:49:33.331Z,6.35
2023-12-27T00:52:40.519Z,5.58
2023-12-27T00:55:47.280Z,6.10
2023-12-27T00:58:54.214Z,5.42
2023-12-27T01:02:04.638Z,5.33
2023-12-27T01:05:11.974Z,5.95
2023-12-27T01:08:18.863Z,5.67
2023-12-27T01:11:24.770Z,5.30
2023-12-27T01:14:31.772Z,6.17
2023-12-27T01:17:37.152Z,5.90
2023-12-27T01:20:42.964Z,5.58
2023-12-27T01:23:48.308Z,6.35
2023-12-27T01:26:54.516Z,5.40
2023-12-27T01:30:02.575Z,5.35
2023-12-27T01:33:10.326Z,5.58
2023-12-27T01:36:23.019Z,6.03
2023-12-27T01:39:28.392Z,6.62
2023-12-27T01:42:33.720Z,5.10
2023-12-27T01:45:40.213Z,5.10
2023-12-27T01:48:46.774Z,6.20
2023-12-27T01:51:53.858Z,5.92
2023-12-27T01:54:58.980Z,5.78
2023-12-27T01:58:04.083Z,6.20
2023-12-27T02:01:10.850Z,6.53
2023-12-27T02:04:16.280Z,6.45
2023-12-27T02:07:28.572Z,6.08
2023-12-27T02:10:29.856Z,6.00
2023-12-27T02:13:36.813Z,6.30
2023-12-27T02:16:42.439Z,5.35
2023-12-27T02:19:49.124Z,6.50
2023-12-27T02:22:55.714Z,6.70
2023-12-27T02:26:00.836Z,5.92
2023-12-27T02:29:05.995Z,6.75
2023-12-27T02:32:12.200Z,7.28
2023-12-27T02:35:17.353Z,7.42
2023-12-27T02:38:24.328Z,6.65
2023-12-27T02:41:30.731Z,7.58
2023-12-27T02:44:37.368Z,6.72
2023-12-27T02:47:41.942Z,7.53
2023-12-27T02:50:47.454Z,6.50
2023-12-27T02:53:54.043Z,8.35
2023-12-27T02:57:00.157Z,6.75
2023-12-27T03:00:05.684Z,6.53
2023-12-27T03:03:12.695Z,6.78
2023-12-27T03:06:18.327Z,6.83
2023-12-27T03:09:24.648Z,6.00
2023-12-27T03:12:24.749Z,5.90
2023-12-27T03:15:24.524Z,6.83
2023-12-27T03:18:31.267Z,6.22
2023-12-27T03:21:38.212Z,6.35
2023-12-27T03:24:44.705Z,6.67
2023-12-27T03:27:50.725Z,6.15
2023-12-27T03:30:57.496Z,7.05
2023-12-27T03:34:04.644Z,7.03
2023-12-27T03:37:11.213Z,7.60
2023-12-27T03:40:18.126Z,7.20
2023-12-27T03:43:24.173Z,6.35
2023-12-27T03:46:30.194Z,6.05
2023-12-27T03:49:36.788Z,6.62
2023-12-27T03:52:42.866Z,6.55
2023-12-27T03:55:48.533Z,7.12
2023-12-27T03:58:55.021Z,6.42
2023-12-27T04:01:55.603Z,7.50
2023-12-27T04:04:48.893Z,7.33
2023-12-27T04:07:56.053Z,6.20
2023-12-27T04:11:01.857Z,6.65
2023-12-27T04:14:08.595Z,6.35
2023-12-27T04:17:14.982Z,6.37
2023-12-27T04:20:21.415Z,6.15
2023-12-27T04:23:27.100Z,6.87
2023-12-27T04:26:32.479Z,6.80
2023-12-27T04:29:38.643Z,6.47
2023-12-27T04:32:46.462Z,7.22
2023-12-27T04:35:52.980Z,6.72
2023-12-27T04:38:58.548Z,6.47
2023-12-27T04:42:05.483Z,6.37
2023-12-27T04:45:12.720Z,7.35
2023-12-27T04:48:18.826Z,6.67
2023-12-27T04:51:25.415Z,7.65
2023-12-27T04:54:31.970Z,7.28
2023-12-27T04:57:39.426Z,7.92
2023-12-27T05:00:45.425Z,6.37
2023-12-27T05:03:52.244Z,7.40
2023-12-27T05:06:58.460Z,5.95
2023-12-27T05:10:04.475Z,6.95
2023-12-27T05:13:10.571Z,6.65
2023-12-27T05:16:16.259Z,7.35
2023-12-27T05:19:23.291Z,7.65
2023-12-27T05:22:28.694Z,6.97
2023-12-27T05:25:34.491Z,6.58
2023-12-27T05:28:39.882Z,6.90
2023-12-27T05:31:45.977Z,6.70
2023-12-27T05:34:53.680Z,7.42
2023-12-27T05:38:00.073Z,7.95
2023-12-27T05:41:06.368Z,6.70
2023-12-27T05:44:12.921Z,6.87
2023-12-27T05:47:20.030Z,6.40
2023-12-27T05:50:25.871Z,6.72
2023-12-27T05:53:31.648Z,6.90
2023-12-27T05:56:38.447Z,7.65
2023-12-27T05:59:44.102Z,8.00
2023-12-27T06:02:49.695Z,8.13
2023-12-27T06:05:55.393Z,6.20
2023-12-27T06:09:01.826Z,6.90
2023-12-27T06:12:07.223Z,7.72
2023-12-27T06:15:15.407Z,6.35
2023-12-27T06:18:20.793Z,6.83
2023-12-27T06:21:27.430Z,6.80
2023-12-27T06:24:34.850Z,6.70
2023-12-27T06:27:42.082Z,6.97
2023-12-27T06:30:49.336Z,7.12
2023-12-27T06:33:56.378Z,6.95
2023-12-27T06:37:04.974Z,7.33
2023-12-27T06:40:11.051Z,6.45
2023-12-27T06:43:16.979Z,6.53
2023-12-27T06:46:23.818Z,6.03
2023-12-27T06:49:29.798Z,6.87
2023-12-27T06:52:35.791Z,6.45
2023-12-27T06:55:41.571Z,6.33
2023-12-27T06:58:47.845Z,6.17
2023-12-27T07:01:53.939Z,6.28
2023-12-27T07:04:59.053Z,5.70
2023-12-27T07:08:05.059Z,6.22
2023-12-27T07:11:11.120Z,5.80
2023-12-27T07:14:16.576Z,5.30
2023-12-27T07:17:22.850Z,6.28
2023-12-27T07:20:29.613Z,5.70
2023-12-27T07:23:36.332Z,6.97
2023-12-27T07:26:42.622Z,5.12
2023-12-27T07:29:49.966Z,4.50
2023-12-27T07:32:57.094Z,4.67
2023-12-27T07:36:04.763Z,4.50
2023-12-27T07:39:13.325Z,5.00
2023-12-27T07:42:19.217Z,4.45
2023-12-27T07:45:28.909Z,3.42
2023-12-27T07:48:34.616Z,3.87
2023-12-27T07:51:44.012Z,3.62
2023-12-27T07:54:52.931Z,3.27
2023-12-27T08:01:06.434Z,3.15
2023-12-27T08:04:13.232Z,6.22
2023-12-27T08:07:13.264Z,3.35
2023-12-27T08:10:09.960Z,4.80
2023-12-27T09:17:40.965Z,1.20
2023-12-27T09:20:47.088Z,1.57
2023-12-27T09:23:53.885Z,1.40
2023-12-27T09:26:59.287Z,1.32
2023-12-27T09:30:06.183Z,2.00
2023-12-27T09:33:15.563Z,1.40
2023-12-27T09:36:21.684Z,1.50
2023-12-27T09:39:27.734Z,1.85
2023-12-27T09:42:51.056Z,1.75
2023-12-27T09:45:58.788Z,1.70
2023-12-27T09:49:16.821Z,1.62
2023-12-27T09:52:23.568Z,1.87
2023-12-27T09:55:39.512Z,1.57
2023-12-27T09:58:54.862Z,1.52
2023-12-27T10:02:10.147Z,1.67
2023-12-27T10:05:24.497Z,1.65
2023-12-27T10:08:33.152Z,1.90
2023-12-27T10:11:40.006Z,1.47
2023-12-27T10:14:46.905Z,1.72
2023-12-27T10:17:52.669Z,1.30
2023-12-27T10:21:00.382Z,1.42
2023-12-27T10:24:07.745Z,1.05
2023-12-27T10:27:17.901Z,1.22
2023-12-27T10:30:24.413Z,1.32
2023-12-27T10:33:32.004Z,1.20
2023-12-27T10:36:39.620Z,1.20
2023-12-27T10:39:46.708Z,1.35
2023-12-27T10:42:54.517Z,1.62
2023-12-27T10:46:00.561Z,1.87
2023-12-27T10:49:08.886Z,1.50
2023-12-27T10:52:15.178Z,1.90
2023-12-27T10:55:21.425Z,1.50
2023-12-27T10:58:36.102Z,1.60
2023-12-27T11:01:53.111Z,1.95
2023-12-27T11:05:02.426Z,2.12
2023-12-27T11:08:16.743Z,1.70
2023-12-27T11:11:24.476Z,1.20
2023-12-27T11:14:32.894Z,1.43
2023-12-27T11:17:38.064Z,1.40
2023-12-27T11:20:45.914Z,1.45
2023-12-27T11:23:52.905Z,1.47
2023-12-27T11:27:03.363Z,1.47
2023-12-27T11:30:09.766Z,1.70
2023-12-27T11:33:16.392Z,1.98
2023-12-27T11:36:25.252Z,2.00
2023-12-27T11:39:37.089Z,1.57
2023-12-27T11:42:43.588Z,1.55
2023-12-27T11:46:15.126Z,1.45
2023-12-27T11:49:20.757Z,1.32
2023-12-27T11:52:29.211Z,1.60
2023-12-27T11:55:36.963Z,1.70
2023-12-27T11:58:49.937Z,1.62
2023-12-27T12:01:57.460Z,1.42
2023-12-27T12:05:14.049Z,1.65
2023-12-27T12:08:43.437Z,1.60
2023-12-27T12:11:50.188Z,2.05
2023-12-27T12:14:57.639Z,2.17
2023-12-27T12:18:06.033Z,1.87
2023-12-27T12:21:11.979Z,1.60
2023-12-27T12:24:26.883Z,1.90
2023-12-27T14:19:54.840Z,1.32
2023-12-27T14:23:22.829Z,1.60
2023-12-27T14:26:33.539Z,1.67
2023-12-27T14:29:41.153Z,2.10
2023-12-27T14:32:47.806Z,1.40
2023-12-27T14:35:56.798Z,0.93
2023-12-27T14:39:05.791Z,1.35
2023-12-27T14:42:14.000Z,1.20
2023-12-27T14:45:25.715Z,1.05
2023-12-27T14:48:38.970Z,1.10
2023-12-27T14:51:46.064Z,1.10
2023-12-27T14:54:54.848Z,1.00
2023-12-27T14:58:21.764Z,1.10
2023-12-27T15:01:37.020Z,1.12
2023-12-27T15:04:48.039Z,1.12
2023-12-27T15:08:06.871Z,0.90
2023-12-27T15:11:33.554Z,1.10
2023-12-27T15:14:47.150Z,1.10
2023-12-27T15:18:02.467Z,1.02
2023-12-27T15:21:11.850Z,1.12
2023-12-27T15:24:25.269Z,1.50
2023-12-27T15:27:34.731Z,1.17
2023-12-27T15:30:57.835Z,1.65
2023-12-27T15:34:14.328Z,1.30
2023-12-27T15:37:28.587Z,1.30
2023-12-27T15:40:45.918Z,1.57
2023-12-27T15:43:58.275Z,1.15
2023-12-27T15:47:08.882Z,1.42
2023-12-27T15:50:21.806Z,1.35
2023-12-27T15:53:28.830Z,1.55
2023-12-27T15:56:50.432Z,1.47
2023-12-27T15:59:58.478Z,1.27
2023-12-27T16:03:05.129Z,1.00
2023-12-27T16:06:05.243Z,1.30
2023-12-27T16:12:22.885Z,1.25
2023-12-27T16:15:33.958Z,1.20
2023-12-27T16:18:39.831Z,1.30
2023-12-27T16:21:46.593Z,1.70
2023-12-27T16:24:54.025Z,1.22
2023-12-27T16:28:03.361Z,1.17
2023-12-27T16:31:10.398Z,1.07
2023-12-27T16:34:18.025Z,1.85
2023-12-27T16:37:25.093Z,1.00
2023-12-27T16:40:31.154Z,1.17
2023-12-27T16:43:44.702Z,1.07
2023-12-27T16:46:52.348Z,1.55
2023-12-27T16:50:01.460Z,1.07
2023-12-27T16:53:07.099Z,1.42
2023-12-27T16:56:13.963Z,1.30
2023-12-27T16:59:20.507Z,1.00
2023-12-27T17:02:26.358Z,1.17
2023-12-27T17:05:32.071Z,1.20
2023-12-27T17:08:37.804Z,1.30
2023-12-27T17:11:45.856Z,0.95
2023-12-27T17:14:54.958Z,1.07
2023-12-27T17:18:01.493Z,1.10
2023-12-27T17:21:08.393Z,0.90
2023-12-27T17:24:15.158Z,1.10
2023-12-27T17:27:25.095Z,1.12
2023-12-27T17:30:32.960Z,0.98
2023-12-27T17:33:39.406Z,1.22
2023-12-27T17:36:46.025Z,1.40
2023-12-27T17:39:52.617Z,0.90
2023-12-27T17:43:00.125Z,1.02
2023-12-27T17:46:06.171Z,1.37
2023-12-27T17:49:12.544Z,1.20
2023-12-27T17:52:18.664Z,1.17
2023-12-27T17:55:25.011Z,1.10
2023-12-27T17:58:33.810Z,1.10
2023-12-27T18:01:39.530Z,1.37
2023-12-27T18:04:47.946Z,1.10
2023-12-27T18:07:55.527Z,1.10
2023-12-27T18:11:01.235Z,1.50
2023-12-27T18:14:08.168Z,1.12
2023-12-27T18:17:14.322Z,1.65
2023-12-27T18:20:23.345Z,1.65
2023-12-27T18:23:31.400Z,1.45
2023-12-27T18:26:42.142Z,1.47
2023-12-27T18:29:47.657Z,1.87
2023-12-27T18:32:54.120Z,1.07
2023-12-27T18:36:02.530Z,1.40
2023-12-27T18:39:09.344Z,1.30
2023-12-27T18:42:15.055Z,1.40
2023-12-27T18:45:22.726Z,1.60
2023-12-27T18:48:30.720Z,1.35
2023-12-27T18:51:37.218Z,1.82
2023-12-27T18:54:44.209Z,1.67
2023-12-27T18:57:50.955Z,1.92
2023-12-27T19:00:58.187Z,1.80
2023-12-27T19:04:05.100Z,1.72
2023-12-27T19:07:10.549Z,1.60
2023-12-27T19:10:17.961Z,2.12
2023-12-27T19:13:25.695Z,1.35
2023-12-27T19:16:34.362Z,1.40
2023-12-27T19:19:40.492Z,2.33
2023-12-27T19:22:49.397Z,1.25
2023-12-27T19:25:55.946Z,1.42
2023-12-27T19:29:04.490Z,1.77
2023-12-27T19:32:12.078Z,1.50
2023-12-27T19:35:22.344Z,1.27
2023-12-27T19:38:28.950Z,1.22
2023-12-27T19:41:35.928Z,1.40
2023-12-27T19:44:42.875Z,1.70
2023-12-27T19:47:48.584Z,2.00
2023-12-27T19:50:54.892Z,1.50
2023-12-27T19:54:01.048Z,2.30
2023-12-27T19:57:07.337Z,1.30
2023-12-27T20:00:13.738Z,1.85
2023-12-27T20:03:20.266Z,1.75
2023-12-27T20:06:27.130Z,1.22
2023-12-27T20:09:33.556Z,1.50
2023-12-27T20:12:39.451Z,1.40
2023-12-27T20:15:49.209Z,1.40
2023-12-27T20:18:54.683Z,1.00
2023-12-27T20:22:01.839Z,1.32
2023-12-27T20:25:08.790Z,1.45
2023-12-27T20:28:14.984Z,2.00
2023-12-27T20:31:20.509Z,1.67
2023-12-27T20:34:27.386Z,1.67
2023-12-27T20:37:34.667Z,1.87
2023-12-27T20:40:41.281Z,2.10
2023-12-27T20:43:48.494Z,1.20
2023-12-27T20:46:55.321Z,1.60
2023-12-27T20:50:01.836Z,1.92
2023-12-27T20:53:10.155Z,1.57
2023-12-27T20:56:17.467Z,1.30
2023-12-27T20:59:25.883Z,1.80
2023-12-27T21:02:33.913Z,1.42
2023-12-27T21:05:41.235Z,1.85
2023-12-27T21:08:48.434Z,2.00
2023-12-27T21:11:56.028Z,1.37
2023-12-27T21:15:04.337Z,1.77
2023-12-27T21:18:11.457Z,1.82
2023-12-27T21:21:18.502Z,2.00
2023-12-27T21:24:25.413Z,2.20
2023-12-27T21:27:31.923Z,1.67
2023-12-27T21:30:37.964Z,2.00
2023-12-27T21:33:44.564Z,1.70
2023-12-27T21:36:50.826Z,1.27
2023-12-27T21:39:57.285Z,1.32
2023-12-27T21:43:04.617Z,1.20
2023-12-27T21:46:12.709Z,1.35
2023-12-27T21:49:18.303Z,2.10
2023-12-27T21:52:25.152Z,1.67
2023-12-27T21:55:30.661Z,1.40
2023-12-27T21:58:36.648Z,1.60
2023-12-27T22:01:42.907Z,1.27
2023-12-27T22:04:52.110Z,1.82
2023-12-27T22:08:05.209Z,1.25
2023-12-27T22:11:06.258Z,1.20
2023-12-27T22:14:13.774Z,1.30
2023-12-27T22:17:21.369Z,1.40
2023-12-27T22:20:29.345Z,1.55
2023-12-27T22:23:35.264Z,1.12
2023-12-27T22:26:41.681Z,1.50
2023-12-27T22:29:48.384Z,1.52
2023-12-27T22:32:56.121Z,1.60
2023-12-27T22:36:02.464Z,1.50
2023-12-27T22:39:08.407Z,1.05
2023-12-27T22:42:14.278Z,1.80
2023-12-27T22:45:22.357Z,1.45
2023-12-27T22:48:29.807Z,1.07
2023-12-27T22:51:36.581Z,1.40
2023-12-27T22:54:42.860Z,1.45
2023-12-27T22:57:49.478Z,1.30
2023-12-27T23:00:57.226Z,1.20
2023-12-27T23:04:03.950Z,1.72
2023-12-27T23:07:10.607Z,1.55
2023-12-27T23:10:16.902Z,1.30
2023-12-27T23:13:23.830Z,1.25
2023-12-27T23:16:30.699Z,1.20
2023-12-27T23:19:37.112Z,1.52
2023-12-27T23:22:43.854Z,1.85
2023-12-27T23:25:51.985Z,1.17
2023-12-27T23:28:58.593Z,1.82
2023-12-27T23:32:05.571Z,1.75
2023-12-27T23:35:11.216Z,1.87
2023-12-27T23:38:17.888Z,1.90
2023-12-27T23:41:23.750Z,2.17
2023-12-27T23:44:30.387Z,1.55
2023-12-27T23:47:35.935Z,1.80
2023-12-27T23:50:42.437Z,1.82
2023-12-27T23:53:49.501Z,1.75
2023-12-27T23:56:55.954Z,1.90
